createdAt,value
2022-11-26T00:01:28.128Z,5.55
2022-11-26T00:03:59.498Z,5.70
2022-11-26T00:06:35.026Z,6.00
2022-11-26T00:09:12.528Z,5.40
2022-11-26T00:11:41.846Z,5.65
2022-11-26T00:14:15.033Z,6.00
2022-11-26T00:16:44.302Z,5.10
2022-11-26T00:19:13.202Z,5.47
2022-11-26T00:21:43.766Z,5.95
2022-11-26T00:24:26.588Z,5.55
2022-11-26T00:26:58.654Z,5.45
2022-11-26T00:29:27.689Z,5.78
2022-11-26T00:31:56.310Z,5.85
2022-11-26T00:34:24.890Z,5.20
2022-11-26T00:36:54.768Z,6.15
2022-11-26T00:39:25.469Z,5.50
2022-11-26T00:41:54.401Z,5.45
2022-11-26T00:44:24.868Z,5.63
2022-11-26T00:46:53.947Z,4.95
2022-11-26T00:49:24.069Z,5.53
2022-11-26T00:51:54.015Z,5.38
2022-11-26T00:54:23.914Z,5.10
2022-11-26T00:56:52.653Z,5.35
2022-11-26T00:59:24.367Z,4.95
2022-11-26T01:01:52.942Z,5.60
2022-11-26T01:04:21.452Z,5.57
2022-11-26T01:06:50.019Z,5.18
2022-11-26T01:09:21.581Z,5.65
2022-11-26T01:11:54.328Z,5.30
2022-11-26T01:14:24.311Z,5.13
2022-11-26T01:16:56.144Z,5.28
2022-11-26T01:19:24.931Z,4.82
2022-11-26T01:21:53.427Z,4.88
2022-11-26T01:24:23.298Z,4.60
2022-11-26T01:26:51.796Z,4.78
2022-11-26T01:29:21.126Z,4.22
2022-11-26T01:31:49.805Z,4.60
2022-11-26T01:34:18.374Z,4.65
2022-11-26T01:36:47.023Z,4.43
2022-11-26T01:39:19.047Z,5.82
2022-11-26T01:41:55.455Z,4.68
2022-11-26T01:44:26.326Z,4.60
2022-11-26T01:46:56.063Z,4.72
2022-11-26T01:49:26.761Z,4.70
2022-11-26T01:52:04.424Z,5.20
2022-11-26T01:54:36.180Z,4.15
2022-11-26T01:57:10.879Z,4.85
2022-11-26T01:59:42.026Z,4.68
2022-11-26T02:02:10.628Z,4.10
2022-11-26T02:04:42.394Z,5.15
2022-11-26T02:07:11.083Z,3.85
2022-11-26T02:09:40.246Z,4.38
2022-11-26T02:12:10.239Z,4.30
2022-11-26T02:14:42.156Z,3.92
2022-11-26T02:17:18.474Z,4.60
2022-11-26T02:20:25.774Z,4.25
2022-11-26T02:23:27.774Z,4.13
2022-11-26T02:26:48.292Z,4.70
2022-11-26T02:29:24.916Z,4.18
2022-11-26T02:32:01.687Z,3.90
2022-11-26T02:34:39.663Z,4.20
2022-11-26T02:37:14.568Z,3.90
2022-11-26T02:39:43.099Z,4.47
2022-11-26T02:42:25.838Z,4.25
2022-11-26T02:44:56.551Z,3.80
2022-11-26T02:47:29.264Z,4.10
2022-11-26T02:50:00.197Z,4.57
2022-11-26T02:52:30.734Z,3.90
2022-11-26T02:55:00.786Z,3.72
2022-11-26T02:57:34.175Z,4.15
2022-11-26T03:00:04.670Z,3.72
2022-11-26T03:02:40.487Z,3.97
2022-11-26T03:05:10.419Z,3.75
2022-11-26T03:07:39.578Z,3.78
2022-11-26T03:10:09.259Z,3.60
2022-11-26T03:12:37.752Z,3.20
2022-11-26T03:15:07.515Z,3.45
2022-11-26T03:17:37.442Z,3.53
2022-11-26T03:20:07.999Z,3.47
2022-11-26T03:22:36.843Z,3.50
2022-11-26T03:25:07.628Z,2.90
2022-11-26T03:27:36.700Z,3.53
2022-11-26T03:30:06.966Z,3.10
2022-11-26T03:32:36.864Z,4.18
2022-11-26T03:35:06.523Z,3.10
2022-11-26T03:37:35.059Z,3.30
2022-11-26T03:40:03.651Z,2.80
2022-11-26T03:42:32.297Z,3.63
2022-11-26T03:45:00.804Z,3.55
2022-11-26T03:47:29.552Z,3.60
2022-11-26T03:49:59.427Z,3.30
2022-11-26T03:52:28.036Z,3.83
2022-11-26T03:54:56.517Z,3.58
2022-11-26T03:57:25.310Z,3.35
2022-11-26T03:59:53.988Z,3.35
2022-11-26T04:02:22.750Z,3.15
2022-11-26T04:04:51.409Z,2.80
2022-11-26T04:07:21.376Z,3.05
2022-11-26T04:09:49.916Z,3.47
2022-11-26T04:12:18.557Z,3.25
2022-11-26T04:14:47.098Z,3.72
2022-11-26T04:17:15.639Z,3.22
2022-11-26T04:19:44.211Z,3.15
2022-11-26T04:22:12.673Z,3.03
2022-11-26T04:24:42.487Z,3.17
2022-11-26T04:27:11.015Z,3.10
2022-11-26T04:29:39.592Z,3.25
2022-11-26T04:32:08.223Z,3.22
2022-11-26T04:34:37.013Z,3.20
2022-11-26T04:37:05.875Z,3.97
2022-11-26T04:39:34.511Z,3.25
2022-11-26T04:42:04.461Z,3.28
2022-11-26T04:44:33.366Z,3.10
2022-11-26T04:47:01.883Z,3.15
2022-11-26T04:49:30.374Z,3.38
2022-11-26T04:51:58.956Z,2.80
2022-11-26T04:54:27.508Z,3.20
2022-11-26T04:56:56.042Z,3.22
2022-11-26T04:59:25.963Z,3.63
2022-11-26T05:01:54.522Z,3.83
2022-11-26T05:04:23.045Z,3.92
2022-11-26T05:06:51.574Z,3.42
2022-11-26T05:09:20.031Z,3.13
2022-11-26T05:11:48.641Z,3.15
2022-11-26T05:14:17.395Z,3.53
2022-11-26T05:16:47.371Z,3.30
2022-11-26T05:19:16.537Z,3.47
2022-11-26T05:21:45.097Z,3.83
2022-11-26T05:24:13.626Z,3.33
2022-11-26T05:26:42.136Z,3.35
2022-11-26T05:29:10.681Z,3.13
2022-11-26T05:31:39.249Z,3.13
2022-11-26T05:34:09.324Z,3.25
2022-11-26T05:36:38.097Z,3.30
2022-11-26T05:39:06.649Z,3.95
2022-11-26T05:41:35.139Z,3.70
2022-11-26T05:44:03.793Z,3.60
2022-11-26T05:46:32.541Z,3.65
2022-11-26T05:49:01.063Z,3.47
2022-11-26T05:51:30.874Z,3.50
2022-11-26T05:53:59.396Z,3.15
2022-11-26T05:56:27.932Z,3.50
2022-11-26T05:58:56.492Z,3.65
2022-11-26T06:01:25.007Z,3.67
2022-11-26T06:03:53.618Z,3.22
2022-11-26T06:06:22.168Z,3.65
2022-11-26T06:08:52.197Z,3.38
2022-11-26T06:11:20.901Z,3.38
2022-11-26T06:13:49.474Z,3.25
2022-11-26T06:16:17.990Z,3.75
2022-11-26T06:18:46.548Z,3.75
2022-11-26T06:21:15.095Z,3.70
2022-11-26T06:23:50.582Z,3.25
2022-11-26T06:26:24.400Z,3.58
2022-11-26T06:28:52.971Z,3.90
2022-11-26T06:31:21.572Z,2.88
2022-11-26T06:33:55.089Z,3.03
2022-11-26T06:36:24.130Z,3.75
2022-11-26T06:38:52.706Z,3.67
2022-11-26T06:41:21.402Z,3.42
2022-11-26T06:43:51.276Z,4.00
2022-11-26T06:46:20.156Z,3.80
2022-11-26T06:48:48.965Z,3.33
2022-11-26T06:51:20.525Z,3.22
2022-11-26T06:53:49.148Z,4.13
2022-11-26T06:56:19.395Z,4.18
2022-11-26T06:58:48.725Z,4.13
2022-11-26T07:01:20.809Z,3.60
2022-11-26T07:03:49.470Z,3.58
2022-11-26T07:06:19.615Z,3.45
2022-11-26T07:08:48.616Z,4.10
2022-11-26T07:11:17.240Z,3.90
2022-11-26T07:13:48.285Z,3.60
2022-11-26T07:16:18.259Z,3.55
2022-11-26T07:18:49.916Z,3.97
2022-11-26T07:21:19.824Z,3.90
2022-11-26T07:23:49.358Z,3.70
2022-11-26T07:26:18.975Z,3.83
2022-11-26T07:28:47.652Z,4.75
2022-11-26T07:31:22.339Z,3.92
2022-11-26T07:33:51.363Z,3.67
2022-11-26T07:36:22.171Z,3.88
2022-11-26T07:38:51.146Z,3.72
2022-11-26T07:41:20.999Z,3.50
2022-11-26T07:43:49.874Z,4.10
2022-11-26T07:46:23.052Z,3.42
2022-11-26T07:48:52.451Z,3.95
2022-11-26T07:51:23.488Z,4.07
2022-11-26T07:53:53.062Z,3.20
2022-11-26T07:56:22.026Z,3.47
2022-11-26T07:58:50.708Z,3.45
2022-11-26T08:01:22.521Z,3.60
2022-11-26T08:03:52.413Z,3.63
2022-11-26T08:06:22.825Z,3.78
2022-11-26T08:08:51.684Z,3.72
2022-11-26T08:11:21.865Z,4.60
2022-11-26T08:13:53.991Z,4.43
2022-11-26T08:16:23.968Z,4.25
2022-11-26T08:18:54.513Z,3.88
2022-11-26T08:21:23.215Z,4.45
2022-11-26T08:23:52.494Z,3.40
2022-11-26T08:26:27.621Z,3.38
2022-11-26T08:29:02.165Z,3.40
2022-11-26T08:31:32.189Z,3.67
2022-11-26T08:34:01.442Z,3.97
2022-11-26T08:36:31.618Z,3.30
2022-11-26T08:39:00.921Z,3.58
2022-11-26T08:41:29.796Z,3.67
2022-11-26T08:44:07.210Z,4.78
2022-11-26T08:46:38.472Z,3.88
2022-11-26T08:49:08.785Z,3.65
2022-11-26T08:51:37.547Z,3.95
2022-11-26T08:54:06.174Z,3.45
2022-11-26T08:56:35.228Z,3.45
2022-11-26T08:59:04.241Z,3.33
2022-11-26T09:01:34.605Z,3.78
2022-11-26T09:04:05.708Z,3.20
2022-11-26T09:06:36.702Z,4.10
2022-11-26T09:09:17.571Z,3.20
2022-11-26T09:11:49.114Z,3.22
2022-11-26T09:14:19.220Z,3.67
2022-11-26T09:19:08.983Z,3.63
2022-11-26T09:21:38.046Z,3.03
2022-11-26T09:24:07.191Z,3.22
2022-11-26T09:26:35.832Z,2.83
2022-11-26T09:29:05.075Z,3.38
2022-11-26T09:31:34.104Z,3.50
2022-11-26T09:34:03.753Z,3.42
2022-11-26T09:36:33.670Z,3.50
2022-11-26T09:39:02.248Z,3.72
2022-11-26T09:41:39.533Z,4.00
2022-11-26T09:44:26.968Z,3.50
2022-11-26T09:47:13.914Z,3.45
2022-11-26T09:49:53.859Z,3.72
2022-11-26T09:52:27.502Z,3.28
2022-11-26T09:55:04.278Z,2.83
2022-11-26T09:57:40.695Z,2.90
2022-11-26T10:00:26.379Z,3.20
2022-11-26T10:02:56.574Z,2.90
2022-11-26T10:05:42.747Z,2.55
2022-11-26T10:08:35.988Z,3.25
2022-11-26T10:11:11.745Z,2.60
2022-11-26T10:13:48.784Z,2.92
2022-11-26T10:16:27.233Z,3.13
2022-11-26T10:19:02.706Z,2.72
2022-11-26T10:21:57.723Z,2.60
2022-11-26T10:24:30.923Z,2.60
2022-11-26T10:27:02.598Z,2.50
2022-11-26T10:29:39.325Z,2.20
2022-11-26T10:32:15.491Z,2.63
2022-11-26T10:34:50.564Z,2.00
2022-11-26T10:37:20.258Z,2.80
2022-11-26T10:39:55.253Z,2.63
2022-11-26T10:42:27.142Z,2.22
2022-11-26T10:44:55.681Z,2.75
2022-11-26T10:47:27.854Z,2.17
2022-11-26T10:50:39.535Z,2.67
2022-11-26T10:53:06.535Z,2.60
2022-11-26T10:55:39.538Z,2.70
2022-11-26T10:58:15.964Z,2.47
2022-11-26T11:00:54.426Z,2.50
2022-11-26T11:03:44.984Z,2.70
2022-11-26T11:06:28.061Z,1.88
2022-11-26T11:08:56.635Z,3.28
2022-11-26T11:11:28.257Z,2.83
2022-11-26T11:13:57.992Z,2.53
2022-11-26T11:16:29.537Z,2.33
2022-11-26T11:18:59.732Z,2.08
2022-11-26T11:21:35.462Z,2.38
2022-11-26T11:24:17.558Z,2.17
2022-11-26T11:26:49.661Z,2.65
2022-11-26T11:29:27.605Z,2.00
2022-11-26T11:31:57.403Z,2.20
2022-11-26T11:34:31.483Z,2.20
2022-11-26T11:37:01.630Z,2.33
2022-11-26T11:39:31.780Z,2.55
2022-11-26T11:42:04.238Z,2.47
2022-11-26T11:44:39.670Z,2.13
2022-11-26T11:47:35.159Z,2.53
2022-11-26T11:50:17.402Z,2.80
2022-11-26T11:52:55.076Z,2.35
2022-11-26T11:55:31.360Z,2.45
2022-11-26T11:58:27.656Z,2.67
2022-11-26T12:01:04.574Z,2.03
2022-11-26T12:04:19.866Z,2.40
2022-11-26T12:07:01.558Z,2.58
2022-11-26T12:09:37.393Z,2.53
2022-11-26T12:12:13.367Z,2.13
2022-11-26T12:14:48.641Z,2.80
2022-11-26T12:17:28.974Z,2.35
2022-11-26T12:20:06.351Z,2.22
2022-11-26T12:22:40.550Z,1.67
2022-11-26T12:25:21.039Z,2.83
2022-11-26T12:27:56.042Z,2.10
2022-11-26T12:30:31.767Z,2.28
2022-11-26T12:33:04.600Z,2.28
2022-11-26T12:35:36.463Z,2.20
2022-11-26T12:38:13.264Z,2.03
2022-11-26T12:40:45.815Z,2.22
2022-11-26T12:43:20.094Z,2.80
2022-11-26T12:45:56.300Z,2.78
2022-11-26T12:48:39.862Z,2.17
2022-11-26T12:51:20.235Z,2.03
2022-11-26T12:53:53.420Z,1.90
2022-11-26T12:56:26.058Z,2.17
2022-11-26T12:59:02.186Z,2.38
2022-11-26T13:01:33.001Z,2.25
2022-11-26T13:04:35.622Z,2.20
2022-11-26T13:07:10.393Z,2.00
2022-11-26T13:09:54.457Z,2.03
2022-11-26T13:12:32.278Z,2.22
2022-11-26T13:15:10.667Z,2.40
2022-11-26T13:17:44.084Z,2.20
2022-11-26T13:20:39.099Z,2.40
2022-11-26T13:23:23.583Z,2.67
2022-11-26T13:26:17.454Z,2.00
2022-11-26T13:29:06.874Z,2.20
2022-11-26T13:31:54.318Z,2.20
2022-11-26T13:34:45.517Z,2.45
2022-11-26T13:37:41.575Z,2.22
2022-11-26T13:40:45.366Z,2.90
2022-11-26T13:43:35.714Z,3.30
2022-11-26T13:46:11.445Z,2.55
2022-11-26T13:48:50.446Z,2.20
2022-11-26T13:51:26.078Z,3.28
2022-11-26T13:53:59.809Z,3.22
2022-11-26T13:56:32.315Z,2.85
2022-11-26T13:59:03.342Z,3.30
2022-11-26T14:01:36.825Z,3.05
2022-11-26T14:04:07.853Z,3.08
2022-11-26T14:06:38.960Z,2.80
2022-11-26T14:09:07.798Z,2.63
2022-11-26T14:11:56.937Z,2.80
2022-11-26T14:14:33.405Z,2.50
2022-11-26T14:17:26.576Z,3.47
2022-11-26T14:20:15.494Z,2.65
2022-11-26T14:22:45.336Z,3.00
2022-11-26T14:25:15.309Z,3.15
2022-11-26T14:27:51.863Z,2.80
2022-11-26T14:30:28.506Z,3.17
2022-11-26T14:33:12.419Z,2.67
2022-11-26T14:35:52.524Z,3.28
2022-11-26T14:38:26.658Z,2.72
2022-11-26T14:40:59.979Z,3.55
2022-11-26T14:43:29.510Z,2.65
2022-11-26T14:46:04.953Z,3.08
2022-11-26T14:48:36.370Z,2.40
2022-11-26T14:51:09.130Z,2.92
2022-11-26T14:53:47.864Z,2.67
2022-11-26T14:56:19.663Z,2.90
2022-11-26T14:58:52.933Z,3.00
2022-11-26T15:01:24.147Z,2.65
2022-11-26T15:03:58.467Z,2.50
2022-11-26T15:06:29.801Z,2.63
2022-11-26T15:09:14.491Z,2.97
2022-11-26T15:11:47.891Z,2.58
2022-11-26T15:14:25.105Z,3.10
2022-11-26T15:16:58.984Z,2.83
2022-11-26T15:19:28.674Z,2.72
2022-11-26T15:21:57.299Z,3.13
2022-11-26T15:24:28.215Z,3.60
2022-11-26T15:26:56.757Z,3.55
2022-11-26T15:29:37.192Z,3.55
2022-11-26T15:32:06.317Z,3.50
2022-11-26T15:34:34.939Z,5.18
2022-11-26T15:37:05.283Z,5.80
2022-11-26T15:39:35.166Z,3.42
2022-11-26T15:42:07.763Z,3.35
2022-11-26T15:44:42.556Z,4.25
2022-11-26T15:47:20.190Z,3.47
2022-11-26T15:49:54.070Z,2.97
2022-11-26T15:52:25.946Z,3.80
2022-11-26T15:55:17.672Z,3.75
2022-11-26T15:57:51.670Z,3.63
2022-11-26T16:00:23.418Z,3.80
2022-11-26T16:02:52.652Z,4.05
2022-11-26T16:05:28.809Z,3.42
2022-11-26T16:07:59.605Z,3.72
2022-11-26T16:10:35.287Z,2.95
2022-11-26T16:13:17.625Z,4.75
2022-11-26T16:15:49.601Z,4.40
2022-11-26T16:18:21.712Z,3.28
2022-11-26T16:20:50.677Z,3.85
2022-11-26T16:23:27.676Z,3.05
2022-11-26T16:26:12.288Z,3.35
2022-11-26T16:28:40.783Z,3.25
2022-11-26T16:31:09.538Z,3.53
2022-11-26T16:33:38.263Z,2.75
2022-11-26T16:36:25.482Z,2.88
2022-11-26T16:38:54.426Z,2.95
2022-11-26T16:41:24.272Z,2.95
2022-11-26T16:43:53.008Z,2.92
2022-11-26T16:46:24.021Z,2.70
2022-11-26T16:48:53.396Z,2.60
2022-11-26T16:51:22.641Z,2.97
2022-11-26T16:53:51.200Z,3.10
2022-11-26T16:56:23.951Z,3.50
2022-11-26T16:58:54.143Z,2.97
2022-11-26T17:01:22.719Z,2.53
2022-11-26T17:03:51.372Z,3.00
2022-11-26T17:06:25.363Z,3.10
2022-11-26T17:08:56.228Z,3.42
2022-11-26T17:11:25.342Z,3.33
2022-11-26T17:13:55.326Z,2.90
2022-11-26T17:16:25.993Z,3.80
2022-11-26T17:18:54.604Z,4.65
2022-11-26T17:21:23.195Z,5.97
2022-11-26T17:23:51.812Z,6.43
2022-11-26T17:26:22.311Z,7.03
2022-11-26T17:28:51.921Z,6.90
2022-11-26T17:31:21.872Z,6.82
2022-11-26T17:33:51.077Z,7.38
2022-11-26T17:36:21.197Z,6.93
2022-11-26T17:38:50.159Z,6.63
2022-11-26T17:41:19.246Z,6.95
2022-11-26T17:43:47.838Z,7.05
2022-11-26T17:46:19.343Z,6.40
2022-11-26T17:48:53.273Z,6.70
2022-11-26T17:51:25.696Z,6.38
2022-11-26T17:53:54.225Z,6.28
2022-11-26T17:56:24.529Z,6.60
2022-11-26T17:58:53.468Z,6.57
2022-11-26T18:01:22.542Z,7.68
2022-11-26T18:03:52.953Z,8.25
2022-11-26T18:06:33.180Z,9.02
2022-11-26T18:09:01.712Z,10.30
2022-11-26T18:11:44.235Z,10.73
2022-11-26T18:14:13.402Z,9.63
2022-11-26T18:16:41.936Z,7.80
2022-11-26T18:19:13.388Z,8.00
2022-11-26T18:21:42.603Z,6.15
2022-11-26T18:24:12.596Z,5.72
2022-11-26T18:26:42.219Z,5.22
2022-11-26T18:29:11.597Z,4.90
2022-11-26T18:31:40.811Z,4.53
2022-11-26T18:34:11.360Z,3.78
2022-11-26T18:36:40.322Z,4.10
2022-11-26T18:39:08.847Z,4.32
2022-11-26T18:41:37.511Z,4.68
2022-11-26T18:44:05.952Z,3.78
2022-11-26T18:46:34.583Z,4.53
2022-11-26T18:49:03.404Z,4.82
2022-11-26T18:51:33.335Z,5.10
2022-11-26T18:54:02.970Z,4.38
2022-11-26T18:56:31.930Z,3.53
2022-11-26T18:59:00.682Z,4.43
2022-11-26T19:01:31.198Z,5.25
2022-11-26T19:04:00.783Z,4.65
2022-11-26T19:06:31.639Z,4.80
2022-11-26T19:09:04.416Z,4.85
2022-11-26T19:11:33.817Z,4.95
2022-11-26T19:14:02.538Z,5.22
2022-11-26T19:16:31.101Z,5.80
2022-11-26T19:19:02.771Z,4.90
2022-11-26T19:21:33.808Z,5.40
2022-11-26T19:24:05.859Z,5.03
2022-11-26T19:26:34.826Z,4.82
2022-11-26T19:29:05.079Z,5.18
2022-11-26T19:31:35.994Z,4.93
2022-11-26T19:34:08.008Z,5.28
2022-11-26T19:36:36.755Z,4.95
2022-11-26T19:39:07.533Z,4.50
2022-11-26T19:41:36.089Z,6.55
2022-11-26T19:44:07.054Z,6.88
2022-11-26T19:46:39.268Z,6.97
2022-11-26T19:49:08.677Z,6.60
2022-11-26T19:51:37.212Z,6.43
2022-11-26T19:54:07.711Z,6.25
2022-11-26T19:56:36.738Z,6.45
2022-11-26T19:59:05.785Z,5.68
2022-11-26T20:01:35.544Z,5.63
2022-11-26T20:04:05.979Z,6.45
2022-11-26T20:06:36.355Z,5.93
2022-11-26T20:09:08.082Z,5.97
2022-11-26T20:11:38.685Z,6.40
2022-11-26T20:14:09.482Z,6.00
2022-11-26T20:16:40.014Z,6.55
2022-11-26T20:19:10.049Z,6.50
2022-11-26T20:21:38.983Z,6.32
2022-11-26T20:24:12.544Z,5.70
2022-11-26T20:26:42.997Z,6.03
2022-11-26T20:29:13.655Z,5.35
2022-11-26T20:31:45.830Z,5.68
2022-11-26T20:34:15.011Z,5.10
2022-11-26T20:36:43.567Z,5.72
2022-11-26T20:39:15.997Z,5.45
2022-11-26T20:41:44.806Z,5.60
2022-11-26T20:44:14.156Z,5.13
2022-11-26T20:46:43.138Z,5.30
2022-11-26T20:49:12.175Z,5.93
2022-11-26T20:51:40.780Z,5.53
2022-11-26T20:54:10.490Z,5.57
2022-11-26T20:56:40.603Z,5.20
2022-11-26T20:59:09.978Z,6.03
2022-11-26T21:01:38.779Z,6.35
2022-11-26T21:04:08.192Z,6.03
2022-11-26T21:06:37.130Z,5.75
2022-11-26T21:09:07.246Z,6.65
2022-11-26T21:11:36.538Z,6.38
2022-11-26T21:14:11.928Z,5.65
2022-11-26T21:16:43.393Z,5.38
2022-11-26T21:19:13.190Z,5.75
2022-11-26T21:21:41.913Z,5.45
2022-11-26T21:24:10.424Z,6.30
2022-11-26T21:26:39.298Z,7.45
2022-11-26T21:29:09.188Z,7.05
2022-11-26T21:31:38.214Z,6.93
2022-11-26T21:34:09.031Z,7.20
2022-11-26T21:36:38.114Z,6.57
2022-11-26T21:39:07.391Z,7.30
2022-11-26T21:41:36.880Z,6.97
2022-11-26T21:44:05.691Z,7.28
2022-11-26T21:46:38.837Z,6.70
2022-11-26T21:49:08.556Z,6.15
2022-11-26T21:51:37.103Z,6.47
2022-11-26T21:54:05.953Z,6.18
2022-11-26T21:56:34.967Z,5.88
2022-11-26T21:59:03.567Z,5.90
2022-11-26T22:01:35.859Z,5.45
2022-11-26T22:04:08.131Z,5.30
2022-11-26T22:06:37.234Z,6.00
2022-11-26T22:09:06.528Z,4.80
2022-11-26T22:11:36.939Z,5.10
2022-11-26T22:14:06.423Z,5.32
2022-11-26T22:16:36.438Z,5.65
2022-11-26T22:19:05.799Z,4.47
2022-11-26T22:21:35.914Z,4.25
2022-11-26T22:24:05.987Z,4.18
2022-11-26T22:26:34.835Z,4.35
2022-11-26T22:29:04.217Z,3.65
2022-11-26T22:31:34.366Z,4.03
2022-11-26T22:34:06.487Z,3.63
2022-11-26T22:36:35.300Z,3.85
2022-11-26T22:39:05.470Z,3.80
2022-11-26T22:41:34.350Z,3.92
2022-11-26T22:44:03.031Z,3.42
2022-11-26T22:46:34.057Z,3.28
2022-11-26T22:49:05.962Z,2.70
2022-11-26T22:51:35.907Z,3.53
2022-11-26T22:54:07.623Z,3.28
2022-11-26T22:56:37.936Z,2.63
2022-11-26T22:59:08.068Z,3.30
2022-11-26T23:01:37.880Z,3.17
2022-11-26T23:04:09.931Z,3.20
2022-11-26T23:06:39.618Z,3.63
2022-11-26T23:09:09.823Z,3.35
2022-11-26T23:11:40.410Z,3.30
2022-11-26T23:14:11.769Z,3.25
2022-11-26T23:16:42.215Z,2.90
2022-11-26T23:19:14.529Z,3.08
2022-11-26T23:21:44.650Z,2.90
2022-11-26T23:24:14.515Z,3.38
2022-11-26T23:26:43.734Z,3.03
2022-11-26T23:29:12.923Z,3.83
2022-11-26T23:31:43.215Z,4.25
2022-11-26T23:34:13.765Z,3.08
2022-11-26T23:36:42.321Z,2.92
2022-11-26T23:39:14.281Z,3.40
2022-11-26T23:41:43.609Z,3.30
2022-11-26T23:44:12.153Z,3.17
2022-11-26T23:46:40.756Z,3.30
2022-11-26T23:49:09.231Z,3.42
2022-11-26T23:51:39.142Z,3.00
2022-11-26T23:54:07.640Z,3.80
2022-11-26T23:56:36.736Z,3.10
2022-11-26T23:59:06.108Z,3.33
